Time;durP1;ratioP1;P1;durP2;ratioP2;P2;SDS_P1;SDS_P2;PMS_P1;PMS_P2;Temp;Humidity;BMP_temperature;BMP_pressure;BME280_temperature;BME280_humidity;BME280_pressure;Samples;Min_cycle;Max_cycle;Signal;HPM_P1;HPM_P2
2022/06/22 00:00:07;;;;;;;12.75;9.05;;;;;;;21.99;84.08;94382.78;4961453;28;20213;-86
2022/06/22 00:02:51;;;;;;;13.73;9.63;;;;;;;22.06;83.82;94382.41;4957140;28;20204;-89
2022/06/22 00:05:29;;;;;;;15.15;9.73;;;;;;;22.04;83.78;94380.06;4962877;28;20201;-88
2022/06/22 00:08:04;;;;;;;15.98;10.20;;;;;;;21.90;84.13;94367.91;4961145;28;20296;-89
2022/06/22 00:10:41;;;;;;;14.60;9.40;;;;;;;22.04;83.95;94390.66;4957473;28;20200;-88
2022/06/22 00:13:24;;;;;;;16.83;10.13;;;;;;;22.04;83.72;94390.66;4961917;28;20201;-90
2022/06/22 00:16:03;;;;;;;16.27;9.80;;;;;;;21.98;84.47;94401.63;4961412;28;20216;-89
2022/06/22 00:18:45;;;;;;;15.93;10.40;;;;;;;22.01;84.35;94401.03;4964492;28;20271;-89
2022/06/22 00:21:33;;;;;;;15.07;9.60;;;;;;;21.90;84.97;94389.84;4960931;28;20213;-89
2022/06/22 00:24:38;;;;;;;16.98;9.75;;;;;;;21.85;85.31;94395.22;4959296;28;20202;-88
2022/06/22 00:27:32;;;;;;;13.95;9.13;;;;;;;21.93;85.20;94397.22;4958912;28;20205;-89
2022/06/22 00:30:20;;;;;;;14.02;9.65;;;;;;;21.95;85.10;94391.63;4959152;28;20225;-88
2022/06/22 00:33:22;;;;;;;19.42;10.30;;;;;;;21.92;85.30;94394.88;4956485;28;20217;-89
2022/06/22 00:36:23;;;;;;;18.05;10.07;;;;;;;21.73;86.81;94394.16;4965132;28;20209;-89
2022/06/22 00:38:58;;;;;;;14.63;10.15;;;;;;;21.58;87.61;94379.34;4956484;28;21385;-89
2022/06/22 00:41:41;;;;;;;21.75;10.68;;;;;;;21.71;87.53;94383.06;4957799;28;20428;-88
2022/06/22 00:44:24;;;;;;;15.85;10.23;;;;;;;21.63;88.15;94373.16;4966812;28;20204;-88
2022/06/22 00:47:09;;;;;;;25.52;10.70;;;;;;;21.81;87.43;94388.19;4961433;28;20771;-88
2022/06/22 00:49:47;;;;;;;18.17;10.85;;;;;;;21.77;87.51;94374.75;4955382;28;20237;-87
2022/06/22 00:52:37;;;;;;;16.90;10.60;;;;;;;21.89;87.77;94395.44;4963813;28;20630;-88
2022/06/22 00:55:29;;;;;;;17.23;10.10;;;;;;;21.83;87.65;94396.59;4960910;28;20245;-87
2022/06/22 00:58:10;;;;;;;16.15;10.90;;;;;;;21.85;87.90;94395.22;4960437;28;20707;-85
2022/06/22 01:00:48;;;;;;;18.92;11.07;;;;;;;21.94;87.22;94396.13;4955072;28;20710;-89
2022/06/22 01:03:29;;;;;;;14.75;10.90;;;;;;;21.90;87.44;94389.09;4964058;28;20235;-88
2022/06/22 01:06:11;;;;;;;18.50;10.68;;;;;;;21.88;88.32;94401.81;4962015;28;20644;-89
2022/06/22 01:09:03;;;;;;;14.27;10.75;;;;;;;21.88;88.30;94399.16;4962886;28;20236;-86
2022/06/22 01:14:43;;;;;;;15.90;10.95;;;;;;;21.97;88.17;94394.75;4960870;28;20208;-87
2022/06/22 01:20:21;;;;;;;17.75;11.40;;;;;;;21.88;88.51;94384.06;4960724;28;20209;-88
2022/06/22 01:23:35;;;;;;;14.38;10.35;;;;;;;21.93;88.59;94391.91;4959742;28;20639;-88
2022/06/22 01:26:42;;;;;;;17.17;10.55;;;;;;;21.88;88.99;94376.13;4925871;28;20275;-88
2022/06/22 01:29:29;;;;;;;15.80;10.23;;;;;;;21.85;88.95;94376.69;4960567;28;20212;-87
2022/06/22 01:32:11;;;;;;;16.05;10.98;;;;;;;21.94;89.03;94376.81;4957681;28;20208;-89
2022/06/22 01:34:52;;;;;;;18.60;11.15;;;;;;;21.97;88.89;94373.59;4955310;28;20300;-90
2022/06/22 01:37:40;;;;;;;17.52;10.90;;;;;;;21.88;89.16;94364.75;4957779;28;20908;-90
2022/06/22 01:40:23;;;;;;;17.30;10.95;;;;;;;21.73;89.99;94354.47;4955748;28;20210;-89
2022/06/22 01:43:00;;;;;;;17.17;11.20;;;;;;;21.75;90.46;94361.03;4959208;28;20212;-89
2022/06/22 01:45:49;;;;;;;16.70;10.82;;;;;;;21.67;90.98;94351.16;4958113;28;20208;-88
2022/06/22 01:48:32;;;;;;;15.48;10.57;;;;;;;21.80;90.38;94363.56;4960054;28;20221;-89
2022/06/22 01:51:17;;;;;;;15.70;10.75;;;;;;;21.75;90.86;94360.25;4965426;28;20300;-89
2022/06/22 01:53:59;;;;;;;13.27;10.95;;;;;;;21.69;90.86;94348.97;4960830;28;20572;-89
2022/06/22 01:56:41;;;;;;;17.92;11.00;;;;;;;21.68;90.74;94354.53;4965023;28;20211;-87
2022/06/22 01:59:31;;;;;;;15.45;11.18;;;;;;;21.90;90.44;94362.63;4966428;28;20212;-87
2022/06/22 02:02:17;;;;;;;13.65;10.65;;;;;;;21.87;90.53;94368.47;4963748;28;20579;-86
2022/06/22 02:04:59;;;;;;;14.23;11.55;;;;;;;21.79;90.21;94350.66;4964704;28;20295;-86
2022/06/22 02:07:49;;;;;;;15.35;11.30;;;;;;;21.84;90.57;94364.56;4964712;28;20213;-85
2022/06/22 02:10:42;;;;;;;19.50;11.80;;;;;;;21.76;91.23;94364.47;4960315;28;20236;-86
2022/06/22 02:13:28;;;;;;;16.48;11.93;;;;;;;21.68;91.78;94354.53;4962894;28;20208;-87
2022/06/22 02:16:07;;;;;;;14.80;11.05;;;;;;;21.61;92.32;94351.53;4961743;28;20263;-86
2022/06/22 02:18:56;;;;;;;19.27;11.43;;;;;;;21.63;92.37;94350.16;4966413;28;20236;-88
2022/06/22 02:21:40;;;;;;;16.20;11.18;;;;;;;21.76;91.38;94349.34;4963467;28;20205;-89
2022/06/22 02:24:31;;;;;;;16.10;11.90;;;;;;;21.67;91.99;94350.34;4965709;28;20671;-86
2022/06/22 02:27:11;;;;;;;18.98;11.85;;;;;;;21.53;92.37;94331.81;4959053;28;20236;-87
2022/06/22 02:29:50;;;;;;;19.55;12.10;;;;;;;21.59;92.77;94351.81;4962982;28;20270;-90
2022/06/22 02:32:32;;;;;;;14.90;11.65;;;;;;;21.56;93.16;94348.97;4962199;28;20802;-88
2022/06/22 02:35:14;;;;;;;19.27;11.68;;;;;;;21.58;92.53;94352.91;4961923;28;20251;-89
2022/06/22 02:37:52;;;;;;;22.67;12.25;;;;;;;21.55;92.32;94348.19;4962091;28;20328;-88
2022/06/22 02:44:29;;;;;;;19.27;11.70;;;;;;;21.46;92.15;94348.09;4963883;28;20244;-89
2022/06/22 02:46:30;;;;;;;19.15;11.68;;;;;;;21.08;94.04;94330.00;4966414;28;20761;-88
2022/06/22 02:49:11;;;;;;;19.92;12.60;;;;;;;21.12;94.56;94350.28;4963171;28;20286;-88
2022/06/22 02:51:51;;;;;;;19.52;13.02;;;;;;;20.88;96.01;94350.41;4959272;28;20898;-88
2022/06/22 02:54:40;;;;;;;17.40;12.50;;;;;;;20.70;98.10;94348.56;4963737;28;20912;-89
2022/06/22 02:57:27;;;;;;;18.63;12.93;;;;;;;20.62;99.40;94349.22;4957634;28;20319;-89
2022/06/22 03:00:06;;;;;;;21.67;13.00;;;;;;;20.59;100.00;94355.06;4963012;28;20221;-90
2022/06/22 03:02:49;;;;;;;23.52;13.05;;;;;;;20.73;99.53;94357.75;4962070;28;20263;-89
2022/06/22 03:05:37;;;;;;;21.75;13.82;;;;;;;20.83;99.17;94360.25;4961444;28;20196;-90
2022/06/22 03:08:26;;;;;;;18.05;12.65;;;;;;;20.86;99.35;94367.63;4958855;28;20232;-81
2022/06/22 03:11:03;;;;;;;19.00;13.70;;;;;;;20.85;99.46;94348.31;4961593;28;20213;-80
2022/06/22 03:13:41;;;;;;;19.70;13.43;;;;;;;20.82;100.00;94356.03;4961500;28;20243;-80
2022/06/22 03:16:39;;;;;;;19.27;13.15;;;;;;;20.68;100.00;94356.00;4958006;28;20855;-80
2022/06/22 03:19:13;;;;;;;21.73;13.50;;;;;;;20.66;100.00;94355.50;4954628;28;20280;-79
2022/06/22 03:21:45;;;;;;;20.75;13.65;;;;;;;20.62;100.00;94354.50;4962446;28;20215;-80
2022/06/22 03:24:33;;;;;;;22.20;13.45;;;;;;;20.66;100.00;94357.38;4962985;28;20209;-81
2022/06/22 03:27:09;;;;;;;18.77;13.82;;;;;;;20.75;100.00;94355.63;4959867;28;20808;-81
2022/06/22 03:29:46;;;;;;;19.10;13.32;;;;;;;20.81;100.00;94344.69;4960556;28;20337;-78
2022/06/22 03:32:28;;;;;;;17.83;13.38;;;;;;;20.70;100.00;94351.19;4961512;28;20311;-79
2022/06/22 03:35:08;;;;;;;18.52;13.70;;;;;;;20.56;100.00;94350.38;4961177;28;20213;-79
2022/06/22 03:37:50;;;;;;;18.17;13.13;;;;;;;20.61;100.00;94355.56;4963193;28;20296;-78
2022/06/22 03:40:28;;;;;;;28.08;14.63;;;;;;;20.59;100.00;94352.44;4967302;28;20294;-80
2022/06/22 03:43:03;;;;;;;22.85;13.88;;;;;;;20.61;100.00;94360.06;4939257;28;20228;-79
2022/06/22 03:45:36;;;;;;;27.95;14.35;;;;;;;20.52;100.00;94353.88;4953438;28;20208;-79
2022/06/22 03:48:13;;;;;;;19.95;13.52;;;;;;;20.53;100.00;94352.78;4956268;28;20215;-79
2022/06/22 03:50:48;;;;;;;22.10;14.05;;;;;;;20.58;100.00;94355.34;4952890;28;20208;-79
2022/06/22 03:53:24;;;;;;;27.15;14.18;;;;;;;20.60;100.00;94364.56;4959697;28;20217;-78
2022/06/22 03:56:05;;;;;;;23.10;14.43;;;;;;;20.69;100.00;94373.41;4964413;28;21017;-79
2022/06/22 03:58:38;;;;;;;23.10;13.95;;;;;;;20.59;100.00;94370.91;4955627;28;20225;-79
2022/06/22 04:01:11;;;;;;;21.58;14.80;;;;;;;20.48;100.00;94398.56;4958271;28;20634;-79
2022/06/22 04:03:43;;;;;;;23.95;14.10;;;;;;;20.51;100.00;94384.00;4955574;28;20209;-80
2022/06/22 04:06:24;;;;;;;23.20;14.10;;;;;;;20.57;100.00;94377.56;4961554;28;20214;-79
2022/06/22 04:08:55;;;;;;;22.88;14.95;;;;;;;20.59;100.00;94380.69;4960563;28;20600;-80
2022/06/22 04:11:34;;;;;;;24.60;14.45;;;;;;;20.68;100.00;94379.78;4959147;28;20219;-80
2022/06/22 04:14:10;;;;;;;22.38;14.98;;;;;;;20.85;100.00;94374.75;4959238;28;20209;-79
2022/06/22 04:16:45;;;;;;;21.17;14.05;;;;;;;21.06;100.00;94363.84;4955334;28;20208;-80
2022/06/22 04:19:23;;;;;;;20.13;13.38;;;;;;;21.14;100.00;94363.22;4956243;28;20236;-80
2022/06/22 04:22:00;;;;;;;23.15;13.95;;;;;;;21.14;100.00;94361.34;4957650;28;20311;-81
2022/06/22 04:24:32;;;;;;;18.65;13.82;;;;;;;21.15;100.00;94357.66;4961872;28;20218;-80
2022/06/22 04:27:08;;;;;;;16.83;13.45;;;;;;;21.20;100.00;94364.69;4957623;28;20292;-80
2022/06/22 04:29:45;;;;;;;25.08;13.50;;;;;;;21.27;100.00;94357.94;4956556;28;20287;-80
2022/06/22 04:32:24;;;;;;;20.52;13.00;;;;;;;21.40;100.00;94359.84;4957736;28;20201;-80
2022/06/22 04:35:03;;;;;;;19.83;13.35;;;;;;;21.43;100.00;94366.41;4958056;28;20916;-80
2022/06/22 04:37:44;;;;;;;16.02;12.95;;;;;;;21.56;100.00;94362.22;4953875;28;20711;-79
2022/06/22 04:40:25;;;;;;;20.10;13.02;;;;;;;21.62;100.00;94375.03;4961979;28;20307;-81
2022/06/22 04:43:01;;;;;;;17.95;12.77;;;;;;;21.72;100.00;94382.00;4954875;28;20217;-80
2022/06/22 04:45:33;;;;;;;17.38;12.35;;;;;;;21.76;100.00;94386.41;4953154;28;20211;-80
2022/06/22 04:48:10;;;;;;;16.38;11.77;;;;;;;21.78;100.00;94378.19;4957255;28;20634;-80
2022/06/22 04:50:45;;;;;;;19.13;12.52;;;;;;;21.85;100.00;94384.63;4950276;28;20217;-79
2022/06/22 04:53:25;;;;;;;20.65;12.73;;;;;;;21.92;100.00;94384.28;4963026;28;20996;-80
2022/06/22 04:56:00;;;;;;;18.25;12.40;;;;;;;21.94;100.00;94393.50;4962942;28;20259;-80
2022/06/22 04:58:44;;;;;;;17.35;12.38;;;;;;;22.03;100.00;94385.66;4954860;28;20220;-80
2022/06/22 05:01:20;;;;;;;18.70;12.23;;;;;;;22.02;100.00;94392.00;4954745;28;20285;-80
2022/06/22 05:03:54;;;;;;;16.50;11.55;;;;;;;22.13;100.00;94409.28;4959639;28;20351;-81
2022/06/22 05:06:31;;;;;;;17.70;12.35;;;;;;;22.13;100.00;94409.28;4954063;28;20217;-82
2022/06/22 05:09:08;;;;;;;15.50;11.73;;;;;;;22.20;100.00;94407.00;4956372;28;20301;-80
2022/06/22 05:11:48;;;;;;;16.20;12.27;;;;;;;22.28;100.00;94408.94;4957097;28;20209;-79
2022/06/22 05:14:22;;;;;;;18.50;12.45;;;;;;;22.28;100.00;94400.25;4956794;28;20292;-80
2022/06/22 05:16:56;;;;;;;18.25;11.93;;;;;;;22.34;99.57;94405.13;4948422;28;20209;-80
2022/06/22 05:19:39;;;;;;;23.17;12.73;;;;;;;22.38;99.63;94415.91;4946692;28;20600;-87
2022/06/22 05:22:21;;;;;;;17.83;12.50;;;;;;;22.40;98.71;94416.38;4957293;28;20564;-80
2022/06/22 05:25:08;;;;;;;19.08;12.18;;;;;;;22.38;99.49;94408.75;4963219;28;20280;-84
2022/06/22 05:27:55;;;;;;;15.35;11.55;;;;;;;22.39;99.10;94406.88;4960086;28;20204;-77
2022/06/22 05:30:42;;;;;;;16.50;12.60;;;;;;;22.51;98.17;94415.88;4960839;28;20306;-79
2022/06/22 05:33:27;;;;;;;20.67;12.20;;;;;;;22.45;98.12;94395.09;4960399;28;20212;-78
2022/06/22 05:36:06;;;;;;;17.05;11.90;;;;;;;22.55;97.64;94402.81;4954927;28;20247;-77
2022/06/22 05:38:46;;;;;;;19.95;11.77;;;;;;;22.58;97.43;94405.66;4956335;28;20221;-79
2022/06/22 05:41:32;;;;;;;18.10;12.55;;;;;;;22.67;95.69;94402.31;4958281;28;20782;-78
2022/06/22 05:44:19;;;;;;;24.60;12.57;;;;;;;22.75;95.67;94412.22;4961874;28;20200;-79
2022/06/22 05:46:57;;;;;;;18.15;12.70;;;;;;;22.80;95.70;94417.41;4961138;28;20259;-78
2022/06/22 05:49:50;;;;;;;22.33;12.48;;;;;;;22.88;95.20;94422.78;4959151;28;20282;-79
2022/06/22 05:52:39;;;;;;;19.15;13.20;;;;;;;22.93;95.36;94429.81;4958139;28;20212;-78
2022/06/22 05:55:24;;;;;;;18.42;13.38;;;;;;;23.00;94.74;94432.84;4957705;28;20604;-79
2022/06/22 05:58:13;;;;;;;19.23;12.55;;;;;;;23.04;94.35;94423.19;4955967;28;20208;-78
2022/06/22 06:01:04;;;;;;;16.75;12.00;;;;;;;23.11;94.25;94416.41;4958779;28;20835;-78
2022/06/22 06:03:50;;;;;;;19.17;12.45;;;;;;;23.25;92.73;94416.34;4960979;28;20212;-77
2022/06/22 06:06:34;;;;;;;18.45;12.05;;;;;;;23.23;93.26;94412.44;4963221;28;20213;-78
2022/06/22 06:09:19;;;;;;;19.95;12.77;;;;;;;23.30;93.27;94400.28;4961930;28;20215;-78
2022/06/22 06:12:04;;;;;;;17.42;13.35;;;;;;;23.36;93.31;94407.03;4959244;28;20201;-80
2022/06/22 06:14:43;;;;;;;18.50;13.10;;;;;;;23.32;94.01;94410.63;4960331;28;20259;-80
2022/06/22 06:17:30;;;;;;;20.33;12.65;;;;;;;23.34;94.09;94419.03;4955954;28;20291;-80
2022/06/22 06:20:28;;;;;;;15.93;12.73;;;;;;;23.34;95.18;94416.38;4958747;28;20224;-77
2022/06/22 06:23:10;;;;;;;19.77;12.57;;;;;;;23.34;95.69;94413.75;4957395;28;20655;-78
2022/06/22 06:28:49;;;;;;;19.30;12.43;;;;;;;23.34;96.19;94409.22;4958588;28;20540;-79
2022/06/22 06:31:35;;;;;;;15.77;12.45;;;;;;;23.41;95.24;94414.09;4964771;28;20205;-79
2022/06/22 06:34:23;;;;;;;17.23;12.10;;;;;;;23.47;95.29;94416.34;4967769;28;20201;-79
2022/06/22 06:37:11;;;;;;;20.63;12.95;;;;;;;23.58;96.00;94409.69;4963508;28;20208;-80
2022/06/22 06:39:56;;;;;;;16.85;11.93;;;;;;;23.68;96.24;94409.44;4959953;28;20229;-80
2022/06/22 06:42:39;;;;;;;18.20;12.75;;;;;;;23.80;94.33;94410.72;4963095;28;20706;-79
2022/06/22 06:45:20;;;;;;;16.05;11.90;;;;;;;23.91;93.62;94407.50;4960487;28;20224;-78
2022/06/22 06:48:03;;;;;;;19.63;12.35;;;;;;;23.97;93.54;94413.44;4961050;28;20285;-78
2022/06/22 06:50:41;;;;;;;21.48;12.02;;;;;;;24.02;93.41;94410.63;4964007;28;20212;-79
2022/06/22 06:53:32;;;;;;;16.73;11.60;;;;;;;24.04;93.19;94401.28;4964663;28;20244;-79
2022/06/22 06:56:16;;;;;;;18.45;12.05;;;;;;;24.13;92.22;94401.31;4963522;28;20713;-79
2022/06/22 06:58:52;;;;;;;19.00;10.98;;;;;;;24.24;91.64;94400.72;4958332;28;20224;-85
2022/06/22 07:01:32;;;;;;;11.68;9.90;;;;;;;24.28;91.44;94393.72;4964363;28;20236;-84
2022/06/22 07:04:12;;;;;;;18.20;11.82;;;;;;;24.45;89.63;94400.16;4967499;28;20193;-86
2022/06/22 07:06:53;;;;;;;14.35;9.95;;;;;;;24.57;89.56;94401.13;4955506;28;20740;-87
2022/06/22 07:09:35;;;;;;;14.45;11.18;;;;;;;24.74;87.60;94390.47;4965896;28;20205;-86
2022/06/22 07:12:21;;;;;;;12.85;9.38;;;;;;;24.75;87.10;94388.63;4962117;28;20221;-86
2022/06/22 07:15:02;;;;;;;16.58;10.88;;;;;;;24.89;86.41;94388.47;4957111;28;20858;-84
2022/06/22 07:17:36;;;;;;;33.40;11.65;;;;;;;25.02;85.63;94387.56;4963328;28;20201;-84
2022/06/22 07:20:29;;;;;;;18.40;11.63;;;;;;;25.14;85.49;94383.13;4960746;28;20710;-84
2022/06/22 07:23:24;;;;;;;15.90;11.20;;;;;;;25.26;84.16;94385.94;4955811;28;20205;-85
2022/06/22 07:26:15;;;;;;;19.65;12.55;;;;;;;25.29;84.66;94390.63;4962357;28;20271;-86
2022/06/22 07:28:57;;;;;;;18.35;12.93;;;;;;;25.21;84.63;94374.69;4965847;28;20200;-85
2022/06/22 07:31:48;;;;;;;19.45;13.10;;;;;;;25.34;85.25;94393.13;4964463;28;20193;-85
2022/06/22 07:34:33;;;;;;;16.98;13.57;;;;;;;25.36;85.16;94379.50;4959023;28;20200;-88
2022/06/22 07:37:18;;;;;;;15.13;11.70;;;;;;;25.43;83.89;94390.44;4960976;28;20220;-86
2022/06/22 07:40:01;;;;;;;28.60;15.73;;;;;;;25.49;81.48;94381.22;4961373;28;20232;-88
2022/06/22 07:42:40;;;;;;;24.20;17.10;;;;;;;25.63;81.62;94379.13;4962419;28;20562;-89
2022/06/22 07:45:22;;;;;;;27.58;18.45;;;;;;;25.80;79.09;94389.72;4956461;28;20204;-87
2022/06/22 07:47:58;;;;;;;27.73;19.10;;;;;;;25.85;78.24;94386.91;4956213;28;20292;-86
2022/06/22 07:50:41;;;;;;;26.30;18.92;;;;;;;25.89;77.85;94377.16;4961809;28;20262;-87
2022/06/22 07:53:26;;;;;;;27.95;18.67;;;;;;;25.90;77.35;94394.69;4959990;28;20213;-87
2022/06/22 07:56:04;;;;;;;23.92;18.30;;;;;;;25.77;77.27;94392.25;4959877;28;20267;-85
2022/06/22 07:58:47;;;;;;;23.48;18.13;;;;;;;25.73;76.95;94386.00;4958369;28;20205;-87
2022/06/22 08:01:29;;;;;;;30.98;18.95;;;;;;;26.04;75.84;94396.34;4956842;28;20205;-84
2022/06/22 08:04:12;;;;;;;25.40;18.65;;;;;;;26.20;74.62;94400.88;4954575;28;20213;-83
2022/06/22 08:06:52;;;;;;;31.30;19.63;;;;;;;26.13;76.38;94411.22;4957863;28;20213;-83
2022/06/22 08:09:35;;;;;;;29.23;19.75;;;;;;;26.17;77.46;94403.38;4966411;28;20394;-83
2022/06/22 08:12:21;;;;;;;27.80;18.30;;;;;;;26.27;75.16;94409.13;4959923;28;20285;-82
2022/06/22 08:15:09;;;;;;;26.17;17.80;;;;;;;26.29;73.87;94406.91;4960937;28;20679;-82
2022/06/22 08:17:49;;;;;;;21.45;16.85;;;;;;;26.39;73.96;94409.22;4952549;28;20296;-82
2022/06/22 08:20:33;;;;;;;23.20;17.70;;;;;;;26.39;74.12;94400.44;4953060;28;20245;-82
2022/06/22 08:23:15;;;;;;;25.98;16.40;;;;;;;26.44;74.56;94411.69;4957594;28;20296;-82
2022/06/22 08:25:56;;;;;;;25.13;17.58;;;;;;;26.47;73.84;94412.94;4956323;28;20216;-83
2022/06/22 08:28:38;;;;;;;21.52;15.88;;;;;;;26.49;73.59;94408.06;4961277;28;20208;-83
2022/06/22 08:31:19;;;;;;;28.77;16.40;;;;;;;26.32;74.14;94400.19;4961982;28;20255;-81
2022/06/22 08:34:00;;;;;;;22.65;15.30;;;;;;;26.45;74.25;94407.16;4957246;28;20223;-78
2022/06/22 08:36:40;;;;;;;24.30;15.70;;;;;;;26.44;73.33;94395.69;4962561;28;20676;-81
2022/06/22 08:39:23;;;;;;;23.13;16.08;;;;;;;26.48;73.85;94401.16;4956728;28;20760;-81
2022/06/22 08:42:01;;;;;;;24.15;15.88;;;;;;;26.55;73.61;94396.13;4955987;28;20227;-82
2022/06/22 08:44:53;;;;;;;23.48;15.88;;;;;;;26.67;72.42;94398.81;4959170;28;20213;-83
2022/06/22 08:48:01;;;;;;;21.88;16.20;;;;;;;26.84;69.31;94405.97;4964750;28;20213;-81
2022/06/22 08:51:06;;;;;;;21.05;15.38;;;;;;;26.60;70.29;94405.78;4962379;28;20204;-81
2022/06/22 08:53:55;;;;;;;19.25;14.23;;;;;;;26.71;67.55;94390.97;4966305;28;20200;-81
2022/06/22 08:56:42;;;;;;;23.88;13.13;;;;;;;26.56;66.05;94383.53;4940964;28;20233;-81
2022/06/22 08:59:41;;;;;;;23.45;13.77;;;;;;;26.67;68.57;94390.81;4942323;29;20714;-81
2022/06/22 09:02:46;;;;;;;20.17;12.65;;;;;;;26.69;65.73;94387.84;4940143;29;20220;-81
2022/06/22 09:06:03;;;;;;;17.73;13.48;;;;;;;26.52;67.24;94372.75;4939023;29;20684;-80
2022/06/22 09:08:59;;;;;;;20.85;13.75;;;;;;;26.71;67.46;94373.09;4940740;29;20262;-75
2022/06/22 09:11:49;;;;;;;19.95;12.77;;;;;;;26.69;67.01;94374.50;4943141;29;20687;-74
2022/06/22 09:14:44;;;;;;;23.70;12.77;;;;;;;26.71;66.63;94378.41;4945000;29;20217;-75
2022/06/22 09:17:37;;;;;;;20.83;12.55;;;;;;;26.75;67.84;94382.00;4943580;29;20534;-76
2022/06/22 09:20:46;;;;;;;21.95;13.82;;;;;;;26.80;66.82;94384.50;4941681;29;20653;-76
2022/06/22 09:23:37;;;;;;;16.67;12.70;;;;;;;27.00;67.34;94362.34;4942480;29;20243;-77
2022/06/22 09:26:40;;;;;;;23.45;13.15;;;;;;;27.04;66.13;94359.81;4938916;29;20213;-82
2022/06/22 09:29:30;;;;;;;19.15;13.00;;;;;;;27.17;65.06;94356.06;4940349;29;20198;-77
2022/06/22 09:32:36;;;;;;;20.98;11.80;;;;;;;27.05;63.50;94348.81;4944861;29;20197;-81
2022/06/22 09:35:52;;;;;;;18.40;11.13;;;;;;;27.10;62.18;94349.72;4946492;29;20220;-83
2022/06/22 09:39:07;;;;;;;19.88;11.40;;;;;;;27.21;61.86;94334.84;4941068;29;20308;-83
2022/06/22 09:42:07;;;;;;;16.83;11.48;;;;;;;27.35;61.53;94344.13;4909833;29;20209;-82
2022/06/22 09:45:10;;;;;;;18.10;11.15;;;;;;;27.23;61.47;94337.97;4942827;29;20292;-82
2022/06/22 09:48:23;;;;;;;19.88;10.57;;;;;;;27.08;60.62;94346.56;4939216;29;20209;-82
2022/06/22 09:51:25;;;;;;;11.95;9.70;;;;;;;27.17;59.89;94355.28;4945100;29;20212;-83
2022/06/22 09:58:01;;;;;;;15.73;9.88;;;;;;;27.33;61.14;94340.97;4960196;28;20200;-83
2022/06/22 10:00:49;;;;;;;15.25;9.30;;;;;;;27.51;60.12;94350.41;4962848;28;20236;-83
2022/06/22 10:03:57;;;;;;;15.95;9.77;;;;;;;27.66;59.24;94345.50;4958406;28;20213;-82
2022/06/22 10:06:57;;;;;;;14.73;10.13;;;;;;;27.69;60.28;94358.22;4963178;28;20205;-83
2022/06/22 10:10:01;;;;;;;24.13;10.02;;;;;;;27.78;61.24;94372.25;4965046;28;20291;-86
2022/06/22 10:13:02;;;;;;;19.40;11.07;;;;;;;27.90;62.01;94375.72;4968007;28;20226;-83
2022/06/22 10:15:59;;;;;;;18.17;10.02;;;;;;;28.07;61.30;94375.53;4966287;28;20215;-82
2022/06/22 10:18:51;;;;;;;16.05;9.90;;;;;;;28.22;60.56;94386.66;4962887;28;20289;-82
2022/06/22 10:21:40;;;;;;;16.17;9.95;;;;;;;28.35;59.88;94378.28;4964553;28;20240;-82
2022/06/22 10:24:40;;;;;;;14.13;10.15;;;;;;;28.59;59.13;94383.63;4962117;28;20208;-83
2022/06/22 10:27:41;;;;;;;16.35;10.00;;;;;;;28.69;58.48;94385.84;4958692;28;20201;-83
2022/06/22 10:30:36;;;;;;;18.02;10.60;;;;;;;28.76;58.26;94393.28;4966556;28;20209;-82
2022/06/22 10:33:49;;;;;;;16.42;9.90;;;;;;;28.78;58.35;94388.38;4961176;28;20303;-83
2022/06/22 10:36:39;;;;;;;16.25;9.98;;;;;;;28.62;59.19;94382.16;4958331;28;20208;-81
2022/06/22 10:39:39;;;;;;;22.25;10.57;;;;;;;28.46;58.20;94384.72;4957800;28;20665;-82
2022/06/22 10:45:40;;;;;;;21.00;10.27;;;;;;;28.67;58.16;94387.28;4959410;28;20223;-82
2022/06/22 10:48:56;;;;;;;14.15;10.18;;;;;;;28.83;57.47;94372.06;4964820;28;20209;-82
2022/06/22 10:51:49;;;;;;;14.18;10.70;;;;;;;29.04;57.72;94375.34;4956757;28;20235;-83
2022/06/22 10:54:54;;;;;;;15.35;9.98;;;;;;;29.19;56.04;94384.56;4960664;28;20678;-82
2022/06/22 10:57:50;;;;;;;14.93;10.10;;;;;;;29.39;56.70;94372.09;4970110;28;20208;-82
2022/06/22 11:00:42;;;;;;;17.35;9.77;;;;;;;29.66;57.09;94382.78;4965914;28;20233;-83
2022/06/22 11:03:50;;;;;;;16.75;10.52;;;;;;;29.77;56.25;94383.03;4963622;28;20271;-82
2022/06/22 11:06:54;;;;;;;17.52;10.13;;;;;;;29.87;55.16;94379.88;4962694;28;20216;-84
2022/06/22 11:09:47;;;;;;;15.75;11.00;;;;;;;29.49;56.93;94368.94;4928639;28;20643;-83
2022/06/22 11:12:44;;;;;;;18.65;10.77;;;;;;;29.42;57.93;94366.06;4959699;28;20297;-82
2022/06/22 11:15:50;;;;;;;16.50;9.75;;;;;;;29.80;56.56;94367.09;4961504;28;20219;-81
2022/06/22 11:18:55;;;;;;;15.55;10.05;;;;;;;29.66;55.01;94382.78;4958235;28;20276;-78
2022/06/22 11:21:52;;;;;;;17.77;10.20;;;;;;;29.51;56.00;94388.91;4945141;28;20236;-87
2022/06/22 11:25:06;;;;;;;15.77;10.05;;;;;;;29.42;55.84;94387.50;4962192;28;20254;-83
2022/06/22 11:30:58;;;;;;;21.13;10.45;;;;;;;29.05;57.26;94381.50;4961769;28;20284;-83
2022/06/22 11:34:02;;;;;;;19.05;11.07;;;;;;;28.59;57.77;94377.47;4962021;28;20698;-83
2022/06/22 11:36:52;;;;;;;17.52;10.30;;;;;;;28.15;58.68;94377.31;4961046;28;20205;-84
2022/06/22 11:39:54;;;;;;;17.42;11.18;;;;;;;27.66;60.12;94359.66;4956498;28;20325;-83
2022/06/22 11:42:41;;;;;;;19.08;11.27;;;;;;;27.63;59.70;94376.34;4961566;28;20216;-83
2022/06/22 11:48:41;;;;;;;17.42;10.68;;;;;;;27.53;60.62;94361.53;4967333;28;20199;-84
2022/06/22 11:51:38;;;;;;;22.30;11.50;;;;;;;27.70;61.30;94362.44;4965834;28;20283;-83
2022/06/22 11:54:32;;;;;;;22.85;11.98;;;;;;;27.95;59.41;94370.16;4964658;28;20224;-83
2022/06/22 11:57:22;;;;;;;16.23;11.52;;;;;;;28.17;59.42;94363.59;4965907;28;20232;-84
2022/06/22 12:00:17;;;;;;;19.70;11.70;;;;;;;28.33;60.01;94351.13;4958159;28;20233;-85
2022/06/22 12:03:32;;;;;;;16.02;11.02;;;;;;;28.46;59.89;94359.88;4959998;28;20267;-84
2022/06/22 12:06:31;;;;;;;17.80;11.93;;;;;;;28.45;59.07;94371.72;4961559;28;20205;-84
2022/06/22 12:09:26;;;;;;;18.42;11.43;;;;;;;28.43;61.13;94368.56;4961749;28;20680;-83
2022/06/22 12:12:22;;;;;;;17.23;12.45;;;;;;;28.73;59.46;94377.13;4963502;28;20216;-84
2022/06/22 12:15:10;;;;;;;16.20;11.73;;;;;;;28.99;58.37;94361.44;4962126;28;20853;-84
2022/06/22 12:18:05;;;;;;;20.50;12.05;;;;;;;29.31;57.13;94386.44;4957573;28;20213;-83
2022/06/22 12:20:51;;;;;;;16.35;11.25;;;;;;;29.47;55.69;94369.25;4957983;28;20228;-84
2022/06/22 12:23:41;;;;;;;19.98;10.98;;;;;;;29.60;53.30;94351.22;4961227;28;20602;-84
2022/06/22 12:26:37;;;;;;;18.23;11.10;;;;;;;29.85;52.76;94381.34;4966391;28;20356;-84
2022/06/22 12:29:45;;;;;;;19.90;11.70;;;;;;;29.72;52.51;94367.22;4962584;28;20216;-85
2022/06/22 12:32:26;;;;;;;19.67;11.45;;;;;;;29.40;54.94;94362.97;4962183;28;20283;-84
2022/06/22 12:35:10;;;;;;;18.63;12.52;;;;;;;29.23;55.33;94378.22;4958697;28;20205;-80
2022/06/22 12:37:46;;;;;;;20.05;12.38;;;;;;;29.07;56.00;94382.72;4956631;28;20563;-78
2022/06/22 12:40:33;;;;;;;22.30;12.23;;;;;;;29.04;56.73;94385.28;4960256;28;20239;-79
2022/06/22 12:43:23;;;;;;;22.70;12.75;;;;;;;29.48;56.04;94378.09;4959297;28;20271;-77
2022/06/22 12:46:07;;;;;;;18.42;12.35;;;;;;;30.03;55.53;94379.88;4957193;28;20288;-82
2022/06/22 12:49:19;;;;;;;14.88;11.43;;;;;;;30.46;54.36;94374.41;4959047;28;20638;-78
2022/06/22 12:52:01;;;;;;;20.60;12.63;;;;;;;30.36;53.37;94369.56;4959700;28;20283;-78
2022/06/22 12:54:41;;;;;;;19.85;12.32;;;;;;;30.28;54.05;94371.28;4967302;28;20233;-77
2022/06/22 12:57:26;;;;;;;22.17;12.52;;;;;;;30.48;53.31;94366.00;4956977;28;20560;-77
2022/06/22 13:00:08;;;;;;;16.50;11.52;;;;;;;30.26;50.84;94368.19;4956399;28;20208;-78
2022/06/22 13:02:42;;;;;;;19.83;10.60;;;;;;;30.07;50.10;94364.66;4958802;28;20674;-77
2022/06/22 13:05:24;;;;;;;17.38;10.75;;;;;;;29.65;51.31;94375.88;4953931;28;20714;-78
2022/06/22 13:08:01;;;;;;;16.52;10.32;;;;;;;29.50;53.19;94373.16;4958706;28;20208;-79
2022/06/22 13:10:44;;;;;;;22.77;10.88;;;;;;;29.45;53.07;94352.75;4962712;28;20226;-77